sensor_id;sensor_type;location;lat;lon;timestamp;P1;durP1;ratioP1;P2;durP2;ratioP2
32485;SDS011;18935;52.236;21.134;2022-07-06T00:01:40;13.30;;;10.75;;
32485;SDS011;18935;52.236;21.134;2022-07-06T00:04:05;13.20;;;11.80;;
32485;SDS011;18935;52.236;21.134;2022-07-06T00:06:31;14.30;;;12.13;;
32485;SDS011;18935;52.236;21.134;2022-07-06T00:08:58;13.27;;;11.30;;
32485;SDS011;18935;52.236;21.134;2022-07-06T00:11:23;13.75;;;9.68;;
32485;SDS011;18935;52.236;21.134;2022-07-06T00:13:48;14.35;;;9.20;;
32485;SDS011;18935;52.236;21.134;2022-07-06T00:16:14;9.32;;;8.40;;
32485;SDS011;18935;52.236;21.134;2022-07-06T00:18:39;13.65;;;8.20;;
32485;SDS011;18935;52.236;21.134;2022-07-06T00:21:05;11.13;;;7.73;;
32485;SDS011;18935;52.236;21.134;2022-07-06T00:23:30;9.70;;;8.70;;
32485;SDS011;18935;52.236;21.134;2022-07-06T00:25:56;10.37;;;8.60;;
32485;SDS011;18935;52.236;21.134;2022-07-06T00:28:21;12.88;;;8.70;;
32485;SDS011;18935;52.236;21.134;2022-07-06T00:30:46;14.80;;;8.93;;
32485;SDS011;18935;52.236;21.134;2022-07-06T00:33:11;11.97;;;8.87;;
32485;SDS011;18935;52.236;21.134;2022-07-06T00:35:39;14.85;;;9.70;;
32485;SDS011;18935;52.236;21.134;2022-07-06T00:38:04;13.18;;;10.15;;
32485;SDS011;18935;52.236;21.134;2022-07-06T00:40:30;17.60;;;10.35;;
32485;SDS011;18935;52.236;21.134;2022-07-06T00:42:55;13.40;;;9.80;;
32485;SDS011;18935;52.236;21.134;2022-07-06T00:45:20;16.80;;;9.48;;
32485;SDS011;18935;52.236;21.134;2022-07-06T00:47:46;15.98;;;10.20;;
32485;SDS011;18935;52.236;21.134;2022-07-06T00:50:13;14.40;;;9.27;;
32485;SDS011;18935;52.236;21.134;2022-07-06T00:52:40;11.02;;;9.02;;
32485;SDS011;18935;52.236;21.134;2022-07-06T00:55:13;13.27;;;10.80;;
32485;SDS011;18935;52.236;21.134;2022-07-06T00:57:40;15.80;;;10.23;;
32485;SDS011;18935;52.236;21.134;2022-07-06T01:00:07;10.73;;;9.63;;
32485;SDS011;18935;52.236;21.134;2022-07-06T01:02:34;12.45;;;9.73;;
32485;SDS011;18935;52.236;21.134;2022-07-06T01:05:00;11.27;;;8.65;;
32485;SDS011;18935;52.236;21.134;2022-07-06T01:07:26;13.77;;;8.45;;
32485;SDS011;18935;52.236;21.134;2022-07-06T01:09:53;10.88;;;9.00;;
32485;SDS011;18935;52.236;21.134;2022-07-06T01:12:19;11.48;;;8.65;;
32485;SDS011;18935;52.236;21.134;2022-07-06T01:14:44;10.98;;;8.52;;
32485;SDS011;18935;52.236;21.134;2022-07-06T01:17:10;12.48;;;8.90;;
32485;SDS011;18935;52.236;21.134;2022-07-06T01:19:37;12.38;;;8.73;;
32485;SDS011;18935;52.236;21.134;2022-07-06T01:22:02;12.67;;;8.53;;
32485;SDS011;18935;52.236;21.134;2022-07-06T01:24:28;11.27;;;8.55;;
32485;SDS011;18935;52.236;21.134;2022-07-06T01:26:53;10.45;;;9.32;;
32485;SDS011;18935;52.236;21.134;2022-07-06T01:29:18;10.48;;;9.25;;
32485;SDS011;18935;52.236;21.134;2022-07-06T01:31:45;13.10;;;8.30;;
32485;SDS011;18935;52.236;21.134;2022-07-06T01:34:13;9.82;;;8.40;;
32485;SDS011;18935;52.236;21.134;2022-07-06T01:36:38;11.13;;;8.32;;
32485;SDS011;18935;52.236;21.134;2022-07-06T01:39:03;9.35;;;7.35;;
32485;SDS011;18935;52.236;21.134;2022-07-06T01:41:29;10.10;;;7.50;;
32485;SDS011;18935;52.236;21.134;2022-07-06T01:43:54;11.70;;;7.47;;
32485;SDS011;18935;52.236;21.134;2022-07-06T01:46:19;14.97;;;7.50;;
32485;SDS011;18935;52.236;21.134;2022-07-06T01:48:47;13.65;;;7.72;;
32485;SDS011;18935;52.236;21.134;2022-07-06T01:51:13;8.07;;;6.93;;
32485;SDS011;18935;52.236;21.134;2022-07-06T01:53:38;10.30;;;7.47;;
32485;SDS011;18935;52.236;21.134;2022-07-06T01:56:04;12.15;;;7.85;;
32485;SDS011;18935;52.236;21.134;2022-07-06T01:58:30;12.57;;;7.00;;
32485;SDS011;18935;52.236;21.134;2022-07-06T02:00:55;9.43;;;7.30;;
32485;SDS011;18935;52.236;21.134;2022-07-06T02:03:21;8.35;;;7.05;;
32485;SDS011;18935;52.236;21.134;2022-07-06T02:05:46;9.25;;;6.78;;
32485;SDS011;18935;52.236;21.134;2022-07-06T02:08:12;9.40;;;6.90;;
32485;SDS011;18935;52.236;21.134;2022-07-06T02:10:37;7.90;;;7.10;;
32485;SDS011;18935;52.236;21.134;2022-07-06T02:13:02;8.27;;;6.70;;
32485;SDS011;18935;52.236;21.134;2022-07-06T02:15:28;9.05;;;7.03;;
32485;SDS011;18935;52.236;21.134;2022-07-06T02:17:53;10.40;;;7.00;;
32485;SDS011;18935;52.236;21.134;2022-07-06T02:20:18;12.63;;;8.00;;
32485;SDS011;18935;52.236;21.134;2022-07-06T02:22:43;11.60;;;7.65;;
32485;SDS011;18935;52.236;21.134;2022-07-06T02:25:09;11.73;;;8.10;;
32485;SDS011;18935;52.236;21.134;2022-07-06T02:27:34;8.77;;;7.87;;
32485;SDS011;18935;52.236;21.134;2022-07-06T02:29:59;8.93;;;8.03;;
32485;SDS011;18935;52.236;21.134;2022-07-06T02:32:25;10.97;;;8.00;;
32485;SDS011;18935;52.236;21.134;2022-07-06T02:34:50;10.77;;;9.13;;
32485;SDS011;18935;52.236;21.134;2022-07-06T02:37:15;11.53;;;8.37;;
32485;SDS011;18935;52.236;21.134;2022-07-06T02:39:40;9.73;;;8.73;;
32485;SDS011;18935;52.236;21.134;2022-07-06T02:42:06;9.73;;;8.53;;
32485;SDS011;18935;52.236;21.134;2022-07-06T02:44:31;11.32;;;8.45;;
32485;SDS011;18935;52.236;21.134;2022-07-06T02:46:56;13.88;;;7.90;;
32485;SDS011;18935;52.236;21.134;2022-07-06T02:49:22;11.40;;;7.35;;
32485;SDS011;18935;52.236;21.134;2022-07-06T02:51:47;8.93;;;7.70;;
32485;SDS011;18935;52.236;21.134;2022-07-06T02:54:12;12.50;;;7.63;;
32485;SDS011;18935;52.236;21.134;2022-07-06T02:56:38;11.98;;;7.32;;
32485;SDS011;18935;52.236;21.134;2022-07-06T02:59:03;10.68;;;7.95;;
32485;SDS011;18935;52.236;21.134;2022-07-06T03:01:28;14.70;;;8.00;;
32485;SDS011;18935;52.236;21.134;2022-07-06T03:03:54;16.43;;;8.07;;
32485;SDS011;18935;52.236;21.134;2022-07-06T03:06:19;10.03;;;7.57;;
32485;SDS011;18935;52.236;21.134;2022-07-06T03:08:44;14.68;;;7.85;;
32485;SDS011;18935;52.236;21.134;2022-07-06T03:11:09;11.65;;;8.20;;
32485;SDS011;18935;52.236;21.134;2022-07-06T03:13:35;10.43;;;7.77;;
32485;SDS011;18935;52.236;21.134;2022-07-06T03:16:00;13.43;;;7.90;;
32485;SDS011;18935;52.236;21.134;2022-07-06T03:18:26;11.65;;;8.10;;
32485;SDS011;18935;52.236;21.134;2022-07-06T03:20:51;22.23;;;8.15;;
32485;SDS011;18935;52.236;21.134;2022-07-06T03:23:16;9.55;;;8.18;;
32485;SDS011;18935;52.236;21.134;2022-07-06T03:25:42;13.80;;;8.10;;
32485;SDS011;18935;52.236;21.134;2022-07-06T03:28:07;14.85;;;8.20;;
32485;SDS011;18935;52.236;21.134;2022-07-06T03:30:32;11.10;;;7.83;;
32485;SDS011;18935;52.236;21.134;2022-07-06T03:32:57;10.00;;;8.50;;
32485;SDS011;18935;52.236;21.134;2022-07-06T03:35:23;10.85;;;8.15;;
32485;SDS011;18935;52.236;21.134;2022-07-06T03:37:48;10.48;;;8.38;;
32485;SDS011;18935;52.236;21.134;2022-07-06T03:40:14;9.02;;;7.30;;
32485;SDS011;18935;52.236;21.134;2022-07-06T03:42:40;9.40;;;7.38;;
32485;SDS011;18935;52.236;21.134;2022-07-06T03:45:05;7.97;;;6.65;;
32485;SDS011;18935;52.236;21.134;2022-07-06T03:47:31;9.55;;;6.88;;
32485;SDS011;18935;52.236;21.134;2022-07-06T03:49:57;12.23;;;7.73;;
32485;SDS011;18935;52.236;21.134;2022-07-06T03:52:24;9.73;;;7.00;;
32485;SDS011;18935;52.236;21.134;2022-07-06T03:54:49;13.20;;;7.20;;
32485;SDS011;18935;52.236;21.134;2022-07-06T03:57:15;10.60;;;7.20;;
32485;SDS011;18935;52.236;21.134;2022-07-06T03:59:40;8.75;;;6.80;;
32485;SDS011;18935;52.236;21.134;2022-07-06T04:02:06;13.38;;;7.20;;
32485;SDS011;18935;52.236;21.134;2022-07-06T04:04:31;10.90;;;6.50;;
32485;SDS011;18935;52.236;21.134;2022-07-06T04:06:58;6.93;;;6.22;;
32485;SDS011;18935;52.236;21.134;2022-07-06T04:09:23;10.20;;;6.90;;
32485;SDS011;18935;52.236;21.134;2022-07-06T04:11:48;6.80;;;5.90;;
32485;SDS011;18935;52.236;21.134;2022-07-06T04:14:14;6.77;;;5.80;;
32485;SDS011;18935;52.236;21.134;2022-07-06T04:16:39;9.70;;;6.50;;
32485;SDS011;18935;52.236;21.134;2022-07-06T04:19:04;9.63;;;5.70;;
32485;SDS011;18935;52.236;21.134;2022-07-06T04:21:29;8.37;;;6.70;;
32485;SDS011;18935;52.236;21.134;2022-07-06T04:23:55;7.10;;;5.50;;
32485;SDS011;18935;52.236;21.134;2022-07-06T04:26:20;7.60;;;5.47;;
32485;SDS011;18935;52.236;21.134;2022-07-06T04:28:45;7.97;;;5.72;;
32485;SDS011;18935;52.236;21.134;2022-07-06T04:31:11;8.30;;;5.60;;
32485;SDS011;18935;52.236;21.134;2022-07-06T04:33:39;8.98;;;5.25;;
32485;SDS011;18935;52.236;21.134;2022-07-06T04:36:05;9.23;;;5.03;;
32485;SDS011;18935;52.236;21.134;2022-07-06T04:38:30;6.93;;;5.20;;
32485;SDS011;18935;52.236;21.134;2022-07-06T04:40:55;6.70;;;5.00;;
32485;SDS011;18935;52.236;21.134;2022-07-06T04:43:21;5.18;;;4.40;;
32485;SDS011;18935;52.236;21.134;2022-07-06T04:45:46;6.20;;;4.90;;
32485;SDS011;18935;52.236;21.134;2022-07-06T04:48:11;8.43;;;5.77;;
32485;SDS011;18935;52.236;21.134;2022-07-06T04:50:36;6.53;;;5.13;;
32485;SDS011;18935;52.236;21.134;2022-07-06T04:53:02;6.72;;;5.22;;
32485;SDS011;18935;52.236;21.134;2022-07-06T04:55:29;7.82;;;4.93;;
32485;SDS011;18935;52.236;21.134;2022-07-06T04:57:54;7.32;;;4.50;;
32485;SDS011;18935;52.236;21.134;2022-07-06T05:00:22;7.32;;;4.47;;
32485;SDS011;18935;52.236;21.134;2022-07-06T05:02:47;12.05;;;4.05;;
32485;SDS011;18935;52.236;21.134;2022-07-06T05:05:12;7.37;;;4.23;;
32485;SDS011;18935;52.236;21.134;2022-07-06T05:07:40;5.18;;;3.95;;
32485;SDS011;18935;52.236;21.134;2022-07-06T05:10:07;4.55;;;3.95;;
32485;SDS011;18935;52.236;21.134;2022-07-06T05:15:01;14.25;;;5.65;;
32485;SDS011;18935;52.236;21.134;2022-07-06T05:17:26;8.15;;;5.53;;
32485;SDS011;18935;52.236;21.134;2022-07-06T05:19:52;6.72;;;5.18;;
32485;SDS011;18935;52.236;21.134;2022-07-06T05:22:17;6.47;;;4.93;;
32485;SDS011;18935;52.236;21.134;2022-07-06T05:24:45;9.07;;;5.28;;
32485;SDS011;18935;52.236;21.134;2022-07-06T05:27:11;6.13;;;5.30;;
32485;SDS011;18935;52.236;21.134;2022-07-06T05:29:36;6.03;;;4.63;;
32485;SDS011;18935;52.236;21.134;2022-07-06T05:32:02;9.32;;;4.88;;
32485;SDS011;18935;52.236;21.134;2022-07-06T05:34:27;12.80;;;5.00;;
32485;SDS011;18935;52.236;21.134;2022-07-06T05:36:52;13.40;;;5.82;;
32485;SDS011;18935;52.236;21.134;2022-07-06T05:39:18;9.15;;;5.70;;
32485;SDS011;18935;52.236;21.134;2022-07-06T05:41:46;10.73;;;5.40;;
32485;SDS011;18935;52.236;21.134;2022-07-06T05:44:11;6.32;;;5.20;;
32485;SDS011;18935;52.236;21.134;2022-07-06T05:46:37;7.23;;;5.77;;
32485;SDS011;18935;52.236;21.134;2022-07-06T05:49:02;12.03;;;6.37;;
32485;SDS011;18935;52.236;21.134;2022-07-06T05:51:46;14.55;;;6.88;;
32485;SDS011;18935;52.236;21.134;2022-07-06T05:54:11;8.95;;;6.00;;
32485;SDS011;18935;52.236;21.134;2022-07-06T05:56:36;12.40;;;6.77;;
32485;SDS011;18935;52.236;21.134;2022-07-06T05:59:02;9.80;;;6.37;;
32485;SDS011;18935;52.236;21.134;2022-07-06T06:01:27;9.13;;;6.43;;
32485;SDS011;18935;52.236;21.134;2022-07-06T06:03:53;9.23;;;6.60;;
32485;SDS011;18935;52.236;21.134;2022-07-06T06:06:18;12.33;;;6.70;;
32485;SDS011;18935;52.236;21.134;2022-07-06T06:08:43;9.40;;;6.40;;
32485;SDS011;18935;52.236;21.134;2022-07-06T06:11:09;7.77;;;6.13;;
32485;SDS011;18935;52.236;21.134;2022-07-06T06:13:36;7.85;;;5.10;;
32485;SDS011;18935;52.236;21.134;2022-07-06T06:16:01;8.52;;;5.53;;
32485;SDS011;18935;52.236;21.134;2022-07-06T06:18:27;6.50;;;5.73;;
32485;SDS011;18935;52.236;21.134;2022-07-06T06:20:52;8.32;;;5.65;;
32485;SDS011;18935;52.236;21.134;2022-07-06T06:23:18;7.78;;;5.05;;
32485;SDS011;18935;52.236;21.134;2022-07-06T06:25:43;10.05;;;5.72;;
32485;SDS011;18935;52.236;21.134;2022-07-06T06:28:09;17.00;;;5.47;;
32485;SDS011;18935;52.236;21.134;2022-07-06T06:30:35;8.95;;;6.15;;
32485;SDS011;18935;52.236;21.134;2022-07-06T06:33:05;11.15;;;5.60;;
32485;SDS011;18935;52.236;21.134;2022-07-06T06:35:32;6.07;;;5.15;;
32485;SDS011;18935;52.236;21.134;2022-07-06T06:37:57;7.00;;;5.32;;
32485;SDS011;18935;52.236;21.134;2022-07-06T06:40:22;7.37;;;5.33;;
32485;SDS011;18935;52.236;21.134;2022-07-06T06:42:48;6.53;;;5.27;;
32485;SDS011;18935;52.236;21.134;2022-07-06T06:45:13;7.60;;;5.40;;
32485;SDS011;18935;52.236;21.134;2022-07-06T06:47:38;8.03;;;5.27;;
32485;SDS011;18935;52.236;21.134;2022-07-06T06:50:03;13.93;;;6.53;;
32485;SDS011;18935;52.236;21.134;2022-07-06T06:52:29;8.50;;;5.28;;
32485;SDS011;18935;52.236;21.134;2022-07-06T06:54:54;11.80;;;5.53;;
32485;SDS011;18935;52.236;21.134;2022-07-06T06:57:20;15.38;;;5.97;;
32485;SDS011;18935;52.236;21.134;2022-07-06T06:59:45;12.88;;;6.35;;
32485;SDS011;18935;52.236;21.134;2022-07-06T07:02:10;12.90;;;7.00;;
32485;SDS011;18935;52.236;21.134;2022-07-06T07:04:36;11.97;;;7.30;;
32485;SDS011;18935;52.236;21.134;2022-07-06T07:07:01;11.70;;;7.87;;
32485;SDS011;18935;52.236;21.134;2022-07-06T07:09:26;10.95;;;7.03;;
32485;SDS011;18935;52.236;21.134;2022-07-06T07:11:52;12.02;;;8.05;;
32485;SDS011;18935;52.236;21.134;2022-07-06T07:14:17;8.87;;;7.10;;
32485;SDS011;18935;52.236;21.134;2022-07-06T07:16:42;13.00;;;8.35;;
32485;SDS011;18935;52.236;21.134;2022-07-06T07:19:08;13.55;;;8.00;;
32485;SDS011;18935;52.236;21.134;2022-07-06T07:21:33;10.73;;;8.10;;
32485;SDS011;18935;52.236;21.134;2022-07-06T07:23:58;12.93;;;8.83;;
32485;SDS011;18935;52.236;21.134;2022-07-06T07:26:23;17.47;;;8.90;;
32485;SDS011;18935;52.236;21.134;2022-07-06T07:28:49;13.60;;;9.77;;
32485;SDS011;18935;52.236;21.134;2022-07-06T07:31:14;12.07;;;9.57;;
32485;SDS011;18935;52.236;21.134;2022-07-06T07:33:39;15.52;;;9.73;;
32485;SDS011;18935;52.236;21.134;2022-07-06T07:36:05;18.38;;;8.65;;
32485;SDS011;18935;52.236;21.134;2022-07-06T07:38:30;10.32;;;8.20;;
32485;SDS011;18935;52.236;21.134;2022-07-06T07:40:55;20.10;;;8.48;;
32485;SDS011;18935;52.236;21.134;2022-07-06T07:43:21;14.65;;;7.25;;
32485;SDS011;18935;52.236;21.134;2022-07-06T07:45:47;11.52;;;7.68;;
32485;SDS011;18935;52.236;21.134;2022-07-06T07:48:12;11.77;;;8.18;;
32485;SDS011;18935;52.236;21.134;2022-07-06T07:50:37;8.87;;;6.60;;
32485;SDS011;18935;52.236;21.134;2022-07-06T07:53:03;15.57;;;7.10;;
32485;SDS011;18935;52.236;21.134;2022-07-06T07:55:28;10.10;;;6.40;;
32485;SDS011;18935;52.236;21.134;2022-07-06T07:57:53;8.63;;;6.10;;
32485;SDS011;18935;52.236;21.134;2022-07-06T08:00:19;8.30;;;3.97;;
32485;SDS011;18935;52.236;21.134;2022-07-06T08:02:46;7.32;;;4.07;;
32485;SDS011;18935;52.236;21.134;2022-07-06T08:05:11;9.07;;;4.43;;
32485;SDS011;18935;52.236;21.134;2022-07-06T08:07:38;8.52;;;3.22;;
32485;SDS011;18935;52.236;21.134;2022-07-06T08:10:04;7.60;;;3.00;;
32485;SDS011;18935;52.236;21.134;2022-07-06T08:12:29;8.32;;;2.88;;
32485;SDS011;18935;52.236;21.134;2022-07-06T08:14:55;8.47;;;3.00;;
32485;SDS011;18935;52.236;21.134;2022-07-06T08:17:20;7.13;;;3.42;;
32485;SDS011;18935;52.236;21.134;2022-07-06T08:19:46;5.37;;;3.37;;
32485;SDS011;18935;52.236;21.134;2022-07-06T08:22:11;5.23;;;3.00;;
32485;SDS011;18935;52.236;21.134;2022-07-06T08:24:36;8.50;;;2.40;;
32485;SDS011;18935;52.236;21.134;2022-07-06T08:27:02;6.47;;;2.13;;
32485;SDS011;18935;52.236;21.134;2022-07-06T08:29:28;4.00;;;2.35;;
32485;SDS011;18935;52.236;21.134;2022-07-06T08:31:53;5.25;;;1.98;;
32485;SDS011;18935;52.236;21.134;2022-07-06T08:34:19;7.40;;;2.10;;
32485;SDS011;18935;52.236;21.134;2022-07-06T08:36:44;8.37;;;2.60;;
32485;SDS011;18935;52.236;21.134;2022-07-06T08:39:09;3.40;;;1.97;;
32485;SDS011;18935;52.236;21.134;2022-07-06T08:41:35;5.88;;;2.70;;
32485;SDS011;18935;52.236;21.134;2022-07-06T08:44:03;9.25;;;2.10;;
32485;SDS011;18935;52.236;21.134;2022-07-06T08:46:29;9.60;;;2.30;;
32485;SDS011;18935;52.236;21.134;2022-07-06T08:48:56;3.70;;;1.80;;
32485;SDS011;18935;52.236;21.134;2022-07-06T08:51:22;11.23;;;2.20;;
32485;SDS011;18935;52.236;21.134;2022-07-06T08:53:49;5.15;;;1.95;;
32485;SDS011;18935;52.236;21.134;2022-07-06T08:56:15;7.32;;;2.35;;
32485;SDS011;18935;52.236;21.134;2022-07-06T08:58:41;4.65;;;1.85;;
32485;SDS011;18935;52.236;21.134;2022-07-06T09:01:06;4.07;;;1.92;;
32485;SDS011;18935;52.236;21.134;2022-07-06T09:03:35;6.72;;;1.80;;
32485;SDS011;18935;52.236;21.134;2022-07-06T09:06:01;5.80;;;1.77;;
32485;SDS011;18935;52.236;21.134;2022-07-06T09:08:27;8.93;;;1.75;;
32485;SDS011;18935;52.236;21.134;2022-07-06T09:10:56;7.87;;;1.97;;
32485;SDS011;18935;52.236;21.134;2022-07-06T09:13:21;4.40;;;1.50;;
32485;SDS011;18935;52.236;21.134;2022-07-06T09:15:46;5.57;;;1.43;;
32485;SDS011;18935;52.236;21.134;2022-07-06T09:18:12;2.30;;;1.17;;
32485;SDS011;18935;52.236;21.134;2022-07-06T09:20:37;2.50;;;1.17;;
32485;SDS011;18935;52.236;21.134;2022-07-06T09:23:03;3.65;;;1.15;;
32485;SDS011;18935;52.236;21.134;2022-07-06T09:25:31;2.83;;;1.00;;
32485;SDS011;18935;52.236;21.134;2022-07-06T09:27:57;2.47;;;1.02;;
32485;SDS011;18935;52.236;21.134;2022-07-06T09:30:24;2.88;;;1.00;;
32485;SDS011;18935;52.236;21.134;2022-07-06T09:32:56;9.70;;;1.55;;
32485;SDS011;18935;52.236;21.134;2022-07-06T09:35:23;10.95;;;1.33;;
32485;SDS011;18935;52.236;21.134;2022-07-06T09:40:33;4.10;;;1.10;;
32485;SDS011;18935;52.236;21.134;2022-07-06T09:43:13;2.42;;;0.90;;
32485;SDS011;18935;52.236;21.134;2022-07-06T09:45:40;6.60;;;1.25;;
32485;SDS011;18935;52.236;21.134;2022-07-06T09:48:10;4.82;;;1.10;;
32485;SDS011;18935;52.236;21.134;2022-07-06T09:50:45;6.32;;;1.40;;
32485;SDS011;18935;52.236;21.134;2022-07-06T09:53:12;3.03;;;1.20;;
32485;SDS011;18935;52.236;21.134;2022-07-06T09:55:42;1.83;;;0.90;;
32485;SDS011;18935;52.236;21.134;2022-07-06T09:58:09;6.22;;;1.15;;
32485;SDS011;18935;52.236;21.134;2022-07-06T10:00:34;4.00;;;1.40;;
32485;SDS011;18935;52.236;21.134;2022-07-06T10:03:00;2.25;;;1.00;;
32485;SDS011;18935;52.236;21.134;2022-07-06T10:05:26;3.10;;;1.05;;
32485;SDS011;18935;52.236;21.134;2022-07-06T10:07:55;5.82;;;1.00;;
32485;SDS011;18935;52.236;21.134;2022-07-06T10:10:27;5.03;;;1.40;;
32485;SDS011;18935;52.236;21.134;2022-07-06T10:12:55;4.00;;;1.13;;
32485;SDS011;18935;52.236;21.134;2022-07-06T10:15:25;5.47;;;0.90;;
32485;SDS011;18935;52.236;21.134;2022-07-06T10:17:52;4.25;;;1.00;;
32485;SDS011;18935;52.236;21.134;2022-07-06T10:20:18;5.85;;;1.20;;
32485;SDS011;18935;52.236;21.134;2022-07-06T10:22:45;6.63;;;1.00;;
32485;SDS011;18935;52.236;21.134;2022-07-06T10:25:12;1.60;;;0.75;;
32485;SDS011;18935;52.236;21.134;2022-07-06T10:27:39;6.50;;;0.90;;
32485;SDS011;18935;52.236;21.134;2022-07-06T10:30:05;3.63;;;0.80;;
32485;SDS011;18935;52.236;21.134;2022-07-06T10:32:32;2.17;;;1.00;;
32485;SDS011;18935;52.236;21.134;2022-07-06T10:34:57;6.28;;;0.98;;
32485;SDS011;18935;52.236;21.134;2022-07-06T10:37:24;3.78;;;0.73;;
32485;SDS011;18935;52.236;21.134;2022-07-06T10:39:51;3.92;;;1.42;;
32485;SDS011;18935;52.236;21.134;2022-07-06T10:42:46;4.25;;;0.90;;
32485;SDS011;18935;52.236;21.134;2022-07-06T10:45:14;3.27;;;0.93;;
32485;SDS011;18935;52.236;21.134;2022-07-06T10:47:45;5.40;;;1.17;;
32485;SDS011;18935;52.236;21.134;2022-07-06T10:50:11;2.72;;;0.85;;
32485;SDS011;18935;52.236;21.134;2022-07-06T10:52:50;6.70;;;1.50;;
32485;SDS011;18935;52.236;21.134;2022-07-06T10:55:27;10.73;;;1.30;;
32485;SDS011;18935;52.236;21.134;2022-07-06T10:57:55;2.30;;;1.00;;
32485;SDS011;18935;52.236;21.134;2022-07-06T11:00:21;3.88;;;1.08;;
32485;SDS011;18935;52.236;21.134;2022-07-06T11:02:46;8.82;;;1.33;;
32485;SDS011;18935;52.236;21.134;2022-07-06T11:05:11;5.23;;;1.20;;
32485;SDS011;18935;52.236;21.134;2022-07-06T11:08:08;4.70;;;2.13;;
32485;SDS011;18935;52.236;21.134;2022-07-06T11:10:47;1.47;;;0.70;;
32485;SDS011;18935;52.236;21.134;2022-07-06T11:13:26;3.25;;;1.00;;
32485;SDS011;18935;52.236;21.134;2022-07-06T11:18:25;3.67;;;0.93;;
32485;SDS011;18935;52.236;21.134;2022-07-06T11:21:14;4.30;;;1.10;;
32485;SDS011;18935;52.236;21.134;2022-07-06T11:24:03;3.03;;;0.95;;
32485;SDS011;18935;52.236;21.134;2022-07-06T11:26:30;7.38;;;1.05;;
32485;SDS011;18935;52.236;21.134;2022-07-06T11:28:56;4.55;;;1.10;;
32485;SDS011;18935;52.236;21.134;2022-07-06T11:31:23;4.75;;;0.90;;
32485;SDS011;18935;52.236;21.134;2022-07-06T11:33:48;2.85;;;0.82;;
32485;SDS011;18935;52.236;21.134;2022-07-06T11:38:46;3.75;;;1.70;;
32485;SDS011;18935;52.236;21.134;2022-07-06T11:41:13;7.07;;;1.33;;
32485;SDS011;18935;52.236;21.134;2022-07-06T11:43:40;2.30;;;1.00;;
32485;SDS011;18935;52.236;21.134;2022-07-06T11:46:20;3.97;;;1.67;;
32485;SDS011;18935;52.236;21.134;2022-07-06T11:48:47;3.05;;;0.95;;
32485;SDS011;18935;52.236;21.134;2022-07-06T11:51:14;4.45;;;0.95;;
32485;SDS011;18935;52.236;21.134;2022-07-06T11:53:44;4.72;;;1.00;;
32485;SDS011;18935;52.236;21.134;2022-07-06T11:56:11;4.63;;;1.00;;
32485;SDS011;18935;52.236;21.134;2022-07-06T11:58:37;6.45;;;2.17;;
32485;SDS011;18935;52.236;21.134;2022-07-06T12:03:33;14.80;;;2.20;;
32485;SDS011;18935;52.236;21.134;2022-07-06T12:06:06;4.25;;;1.17;;
32485;SDS011;18935;52.236;21.134;2022-07-06T12:08:41;7.60;;;1.15;;
32485;SDS011;18935;52.236;21.134;2022-07-06T12:11:07;9.02;;;1.13;;
32485;SDS011;18935;52.236;21.134;2022-07-06T12:13:37;5.90;;;1.67;;
32485;SDS011;18935;52.236;21.134;2022-07-06T12:16:09;4.57;;;1.20;;
32485;SDS011;18935;52.236;21.134;2022-07-06T12:18:36;6.20;;;4.53;;
32485;SDS011;18935;52.236;21.134;2022-07-06T12:21:02;3.25;;;1.27;;
32485;SDS011;18935;52.236;21.134;2022-07-06T12:23:37;4.30;;;2.60;;
32485;SDS011;18935;52.236;21.134;2022-07-06T12:26:03;10.50;;;2.00;;
32485;SDS011;18935;52.236;21.134;2022-07-06T12:28:28;5.00;;;1.43;;
32485;SDS011;18935;52.236;21.134;2022-07-06T12:30:54;15.07;;;2.90;;
32485;SDS011;18935;52.236;21.134;2022-07-06T12:33:19;3.13;;;1.10;;
32485;SDS011;18935;52.236;21.134;2022-07-06T12:35:44;6.50;;;2.23;;
32485;SDS011;18935;52.236;21.134;2022-07-06T12:38:09;9.17;;;2.07;;
32485;SDS011;18935;52.236;21.134;2022-07-06T12:40:35;3.93;;;1.33;;
32485;SDS011;18935;52.236;21.134;2022-07-06T12:43:02;5.90;;;3.00;;
32485;SDS011;18935;52.236;21.134;2022-07-06T12:45:28;5.25;;;1.45;;
32485;SDS011;18935;52.236;21.134;2022-07-06T12:47:58;3.35;;;1.20;;
32485;SDS011;18935;52.236;21.134;2022-07-06T12:50:31;2.30;;;1.23;;
32485;SDS011;18935;52.236;21.134;2022-07-06T12:53:02;3.58;;;1.23;;
32485;SDS011;18935;52.236;21.134;2022-07-06T12:55:28;2.05;;;1.35;;
32485;SDS011;18935;52.236;21.134;2022-07-06T12:57:55;3.85;;;1.00;;
32485;SDS011;18935;52.236;21.134;2022-07-06T13:00:21;5.75;;;2.17;;
32485;SDS011;18935;52.236;21.134;2022-07-06T13:02:49;1.92;;;0.90;;
32485;SDS011;18935;52.236;21.134;2022-07-06T13:05:22;2.97;;;1.05;;
32485;SDS011;18935;52.236;21.134;2022-07-06T13:07:56;4.20;;;1.40;;
32485;SDS011;18935;52.236;21.134;2022-07-06T13:10:23;3.33;;;1.40;;
32485;SDS011;18935;52.236;21.134;2022-07-06T13:12:50;4.13;;;1.10;;
32485;SDS011;18935;52.236;21.134;2022-07-06T13:15:16;1.60;;;0.73;;
32485;SDS011;18935;52.236;21.134;2022-07-06T13:17:41;4.63;;;1.10;;
32485;SDS011;18935;52.236;21.134;2022-07-06T13:20:09;1.52;;;0.85;;
32485;SDS011;18935;52.236;21.134;2022-07-06T13:22:38;3.05;;;1.20;;
32485;SDS011;18935;52.236;21.134;2022-07-06T13:25:04;5.78;;;1.13;;
32485;SDS011;18935;52.236;21.134;2022-07-06T13:27:30;4.32;;;0.90;;
32485;SDS011;18935;52.236;21.134;2022-07-06T13:29:56;1.50;;;0.90;;
32485;SDS011;18935;52.236;21.134;2022-07-06T13:32:21;5.57;;;1.10;;
32485;SDS011;18935;52.236;21.134;2022-07-06T13:34:47;4.28;;;1.50;;
32485;SDS011;18935;52.236;21.134;2022-07-06T13:37:12;4.70;;;1.10;;
32485;SDS011;18935;52.236;21.134;2022-07-06T13:39:37;3.10;;;1.10;;
32485;SDS011;18935;52.236;21.134;2022-07-06T13:42:03;2.53;;;1.10;;
32485;SDS011;18935;52.236;21.134;2022-07-06T13:44:28;3.03;;;1.02;;
32485;SDS011;18935;52.236;21.134;2022-07-06T13:46:54;3.30;;;1.00;;
32485;SDS011;18935;52.236;21.134;2022-07-06T13:49:19;4.30;;;1.30;;
32485;SDS011;18935;52.236;21.134;2022-07-06T13:51:45;6.88;;;1.20;;
32485;SDS011;18935;52.236;21.134;2022-07-06T13:54:11;5.35;;;0.95;;
32485;SDS011;18935;52.236;21.134;2022-07-06T13:56:37;5.75;;;1.20;;
32485;SDS011;18935;52.236;21.134;2022-07-06T13:59:03;4.40;;;1.00;;
32485;SDS011;18935;52.236;21.134;2022-07-06T14:01:29;3.60;;;0.98;;
32485;SDS011;18935;52.236;21.134;2022-07-06T14:03:54;3.20;;;0.90;;
32485;SDS011;18935;52.236;21.134;2022-07-06T14:06:20;3.77;;;1.07;;
32485;SDS011;18935;52.236;21.134;2022-07-06T14:08:46;3.00;;;1.25;;
32485;SDS011;18935;52.236;21.134;2022-07-06T14:11:11;5.45;;;1.05;;
32485;SDS011;18935;52.236;21.134;2022-07-06T14:13:37;4.80;;;1.33;;
32485;SDS011;18935;52.236;21.134;2022-07-06T14:16:03;3.60;;;0.90;;
32485;SDS011;18935;52.236;21.134;2022-07-06T14:18:29;3.60;;;1.13;;
32485;SDS011;18935;52.236;21.134;2022-07-06T14:20:55;3.35;;;1.45;;
32485;SDS011;18935;52.236;21.134;2022-07-06T14:23:20;2.83;;;1.02;;
32485;SDS011;18935;52.236;21.134;2022-07-06T14:25:46;6.00;;;1.30;;
32485;SDS011;18935;52.236;21.134;2022-07-06T14:28:12;3.65;;;1.40;;
32485;SDS011;18935;52.236;21.134;2022-07-06T14:30:38;3.45;;;1.20;;
32485;SDS011;18935;52.236;21.134;2022-07-06T14:33:05;2.90;;;1.23;;
32485;SDS011;18935;52.236;21.134;2022-07-06T14:35:35;3.80;;;1.10;;
32485;SDS011;18935;52.236;21.134;2022-07-06T14:38:05;7.75;;;1.70;;
32485;SDS011;18935;52.236;21.134;2022-07-06T14:40:32;9.02;;;1.42;;